Time;durP1;ratioP1;P1;durP2;ratioP2;P2;SDS_P1;SDS_P2;PMS_P1;PMS_P2;Temp;Humidity;BMP_temperature;BMP_pressure;BME280_temperature;BME280_humidity;BME280_pressure;Samples;Min_cycle;Max_cycle;Signal;HPM_P1;HPM_P2
2021/01/17 00:02:24;;;;;;;9.07;6.10;;;-5.30;96.30;;;;;;4994337;28;20174;-76
2021/01/17 00:04:50;;;;;;;9.83;5.80;;;-5.30;96.30;;;;;;4994287;28;20733;-76
2021/01/17 00:07:15;;;;;;;8.70;4.83;;;-5.30;96.30;;;;;;4993746;28;20182;-78
2021/01/17 00:09:41;;;;;;;7.00;4.33;;;-5.30;96.30;;;;;;4994190;28;20225;-76
2021/01/17 00:12:08;;;;;;;8.00;5.43;;;-5.30;96.30;;;;;;4988787;28;20206;-76
2021/01/17 00:14:35;;;;;;;7.80;4.90;;;-5.40;96.30;;;;;;4957279;28;20182;-76
2021/01/17 00:17:01;;;;;;;5.70;4.10;;;-5.40;96.30;;;;;;4974197;28;20449;-76
2021/01/17 00:19:26;;;;;;;10.13;5.43;;;-5.40;96.30;;;;;;4974406;28;20495;-76
2021/01/17 00:21:52;;;;;;;12.97;5.00;;;-5.50;96.30;;;;;;4957203;28;20183;-77
2021/01/17 00:24:17;;;;;;;9.00;4.90;;;-5.60;96.30;;;;;;4974504;28;20185;-76
2021/01/17 00:26:42;;;;;;;7.10;5.20;;;-5.60;96.30;;;;;;4973903;28;20174;-76
2021/01/17 00:29:08;;;;;;;7.90;3.83;;;-5.60;96.30;;;;;;4974248;28;20209;-76
2021/01/17 00:31:37;;;;;;;12.03;5.53;;;-5.50;96.30;;;;;;4974333;28;20217;-76
2021/01/17 00:34:03;;;;;;;10.83;5.77;;;-5.50;96.30;;;;;;4974354;28;20182;-76
2021/01/17 00:36:35;;;;;;;13.27;5.77;;;-5.60;96.30;;;;;;4973733;28;20421;-76
2021/01/17 00:39:01;;;;;;;7.07;4.70;;;-5.70;96.30;;;;;;4956854;28;20861;-76
2021/01/17 00:41:30;;;;;;;9.20;5.33;;;-5.70;96.30;;;;;;4974137;28;20414;-76
2021/01/17 00:43:56;;;;;;;8.87;5.50;;;-5.70;96.30;;;;;;4956944;28;20430;-76
2021/01/17 00:46:21;;;;;;;5.70;4.83;;;-5.80;96.30;;;;;;4956342;28;20467;-76
2021/01/17 00:48:47;;;;;;;10.20;5.23;;;-5.80;96.30;;;;;;4974103;28;20256;-76
2021/01/17 00:51:12;;;;;;;8.87;5.23;;;-5.60;96.30;;;;;;4974003;28;20198;-76
2021/01/17 00:53:38;;;;;;;9.57;4.33;;;-5.60;96.30;;;;;;4973930;28;20736;-75
2021/01/17 00:56:03;;;;;;;6.73;4.50;;;-5.60;96.30;;;;;;4956219;28;20634;-76
2021/01/17 00:58:29;;;;;;;8.43;4.43;;;-5.60;96.30;;;;;;4973844;28;20202;-77
2021/01/17 05:00:31;;;;;;;8.43;5.03;;;-5.90;96.30;;;;;;5916232;23;20472;-77
2021/01/17 05:03:09;;;;;;;6.43;4.77;;;-5.90;96.30;;;;;;4971403;28;20444;-77
2021/01/17 05:05:40;;;;;;;7.90;4.57;;;-5.90;96.30;;;;;;4980992;28;20429;-77
2021/01/17 05:08:25;;;;;;;7.70;5.30;;;-5.90;96.30;;;;;;4982070;28;20491;-77
2021/01/17 05:11:02;;;;;;;11.90;5.00;;;-5.90;96.30;;;;;;4967486;28;20431;-77
2021/01/17 05:13:38;;;;;;;7.70;5.33;;;-5.90;96.30;;;;;;4970588;28;20408;-77
2021/01/17 05:16:08;;;;;;;6.37;4.57;;;-6.00;96.30;;;;;;5015031;23;20529;-78
2021/01/17 05:18:35;;;;;;;6.60;5.03;;;-6.00;96.30;;;;;;5021583;28;20423;-78
2021/01/17 05:21:02;;;;;;;8.07;5.50;;;-6.10;96.30;;;;;;5021621;28;20434;-77
2021/01/17 05:23:35;;;;;;;6.87;4.33;;;-6.10;96.30;;;;;;5010416;28;20426;-77
2021/01/17 05:26:03;;;;;;;10.23;6.07;;;-6.20;96.30;;;;;;4992397;28;20535;-77
2021/01/17 05:28:30;;;;;;;6.50;4.70;;;-6.20;96.30;;;;;;4992205;28;20420;-77
2021/01/17 05:30:56;;;;;;;6.40;4.40;;;-6.20;96.30;;;;;;4991583;28;20480;-76
2021/01/17 05:33:30;;;;;;;7.77;4.70;;;-6.20;96.30;;;;;;5004959;28;20412;-77
2021/01/17 05:35:56;;;;;;;7.10;5.20;;;-6.30;96.30;;;;;;5011883;28;20455;-77
2021/01/17 05:38:22;;;;;;;10.30;5.30;;;-6.50;96.30;;;;;;5012493;28;20775;-77
2021/01/17 05:40:47;;;;;;;7.60;4.60;;;-6.50;96.30;;;;;;5012467;28;20416;-77
2021/01/17 05:43:13;;;;;;;8.40;5.33;;;-6.60;96.30;;;;;;5012390;28;20244;-77
2021/01/17 05:45:38;;;;;;;6.50;4.30;;;-6.60;96.30;;;;;;5011859;28;20676;-77
2021/01/17 05:48:08;;;;;;;9.37;4.43;;;-6.60;96.30;;;;;;5011139;28;20177;-77
2021/01/17 05:50:36;;;;;;;9.20;6.40;;;-6.60;96.30;;;;;;5012065;28;20173;-77
2021/01/17 05:53:05;;;;;;;12.07;7.20;;;-6.70;96.30;;;;;;5012323;28;20440;-77
2021/01/17 05:55:44;;;;;;;13.87;7.70;;;-6.80;96.30;;;;;;5011649;28;20424;-77
2021/01/17 05:58:27;;;;;;;6.63;4.97;;;-6.90;96.30;;;;;;5012189;28;20844;-76
2021/01/17 06:00:55;;;;;;;10.07;4.73;;;-7.00;96.30;;;;;;5010993;28;20407;-77
2021/01/17 06:03:27;;;;;;;8.70;5.60;;;-7.20;96.30;;;;;;5012233;28;20450;-77
2021/01/17 06:06:03;;;;;;;7.73;5.23;;;-7.30;96.30;;;;;;5011569;28;20416;-78
2021/01/17 06:08:29;;;;;;;8.17;4.93;;;-7.30;96.30;;;;;;5012282;28;20875;-77
2021/01/17 06:11:15;;;;;;;6.77;5.13;;;-7.20;96.30;;;;;;5012080;28;20403;-77
2021/01/17 06:13:41;;;;;;;8.33;5.47;;;-7.30;96.30;;;;;;5011665;28;20420;-77
2021/01/17 06:16:32;;;;;;;6.50;4.23;;;-7.30;96.30;;;;;;5011401;28;20443;-77
2021/01/17 06:19:02;;;;;;;9.70;5.00;;;-7.20;96.30;;;;;;5012068;28;20426;-77
2021/01/17 06:21:29;;;;;;;6.03;4.30;;;-7.20;96.30;;;;;;5012061;28;20408;-78
2021/01/17 06:23:57;;;;;;;10.90;4.60;;;-7.20;96.30;;;;;;5011749;28;20423;-77
2021/01/17 06:26:32;;;;;;;8.17;4.37;;;-7.20;96.30;;;;;;5011315;28;20439;-77
2021/01/17 06:28:59;;;;;;;7.17;4.57;;;-7.30;96.30;;;;;;5011947;28;20400;-77
2021/01/17 06:31:28;;;;;;;5.80;3.97;;;-7.40;96.30;;;;;;5011760;28;20495;-77
2021/01/17 06:34:14;;;;;;;18.13;10.10;;;-7.40;96.30;;;;;;5011990;28;20418;-77
2021/01/17 06:36:42;;;;;;;13.00;6.80;;;-7.40;96.30;;;;;;5011349;28;20423;-77
2021/01/17 06:39:26;;;;;;;8.40;5.20;;;-7.50;96.30;;;;;;5010672;28;20420;-77
2021/01/17 06:41:54;;;;;;;11.17;6.80;;;-7.50;96.30;;;;;;5014273;28;20423;-77
2021/01/17 06:44:31;;;;;;;9.00;6.10;;;-7.50;96.30;;;;;;5015543;28;20415;-77
2021/01/17 06:46:57;;;;;;;7.70;4.73;;;-7.50;96.30;;;;;;5014872;28;20804;-77
2021/01/17 06:49:25;;;;;;;8.80;6.23;;;-7.40;96.30;;;;;;5015394;28;20403;-77
2021/01/17 06:51:52;;;;;;;9.10;5.90;;;-7.30;96.30;;;;;;5011565;28;20487;-78
2021/01/17 06:54:23;;;;;;;9.80;5.70;;;-7.30;96.30;;;;;;5009045;28;20412;-77
2021/01/17 06:56:58;;;;;;;7.87;5.20;;;-7.30;96.30;;;;;;5007193;28;20462;-78
2021/01/17 06:59:41;;;;;;;8.33;5.07;;;-7.30;96.30;;;;;;5013233;28;20420;-77
2021/01/17 07:02:13;;;;;;;8.40;4.97;;;-7.30;96.30;;;;;;5008451;28;21054;-79
2021/01/17 07:04:41;;;;;;;9.67;5.17;;;-7.20;96.30;;;;;;5013751;28;20936;-77
2021/01/17 07:07:26;;;;;;;4.93;3.83;;;-7.10;96.30;;;;;;5012211;28;20431;-78
2021/01/17 07:10:00;;;;;;;11.33;7.63;;;-7.20;96.30;;;;;;5014300;28;20487;-78
2021/01/17 07:12:53;;;;;;;9.27;5.77;;;-7.10;96.30;;;;;;5009653;28;20527;-77
2021/01/17 07:15:27;;;;;;;10.33;5.33;;;-7.10;96.30;;;;;;5005678;28;20467;-77
2021/01/17 07:18:12;;;;;;;8.37;6.40;;;-7.00;96.30;;;;;;5006228;28;20895;-77
2021/01/17 07:20:46;;;;;;;15.73;7.60;;;-6.90;96.30;;;;;;5014083;28;20862;-77
2021/01/17 07:23:13;;;;;;;7.90;5.67;;;-6.90;96.30;;;;;;5006081;28;20885;-77
2021/01/17 07:25:43;;;;;;;9.17;5.30;;;-7.00;96.30;;;;;;5012086;28;21086;-78
2021/01/17 07:28:08;;;;;;;8.97;6.90;;;-7.30;96.30;;;;;;5014219;28;20930;-78
2021/01/17 07:30:52;;;;;;;9.70;5.77;;;-7.10;96.30;;;;;;5013391;28;20419;-77
2021/01/17 07:33:26;;;;;;;9.47;5.30;;;-6.90;96.30;;;;;;5009564;28;20185;-77
2021/01/17 07:35:55;;;;;;;7.67;4.83;;;-6.70;96.30;;;;;;5011362;28;20431;-77
2021/01/17 07:38:23;;;;;;;17.13;5.60;;;-6.60;96.30;;;;;;5012609;28;20416;-77
2021/01/17 07:40:55;;;;;;;7.93;5.20;;;-6.60;96.30;;;;;;5012205;28;20408;-77
2021/01/17 07:43:27;;;;;;;7.00;5.13;;;-6.70;96.30;;;;;;5008300;28;20413;-78
2021/01/17 07:45:55;;;;;;;6.27;4.60;;;-7.00;96.30;;;;;;5013011;28;21037;-77
2021/01/17 07:48:21;;;;;;;7.40;5.07;;;-7.10;96.30;;;;;;5012212;28;20446;-77
2021/01/17 07:50:49;;;;;;;15.57;9.33;;;-7.00;96.30;;;;;;5013331;28;20513;-77
2021/01/17 07:53:36;;;;;;;20.90;11.17;;;-6.90;96.30;;;;;;5011247;28;20920;-77
2021/01/17 07:56:27;;;;;;;12.37;6.83;;;-6.70;96.30;;;;;;5019083;28;20437;-78
2021/01/17 07:58:59;;;;;;;9.93;6.40;;;-6.90;96.30;;;;;;4999601;28;20420;-78
2021/01/17 08:01:30;;;;;;;14.27;7.87;;;-7.00;96.30;;;;;;5013336;28;20404;-77
2021/01/17 08:04:16;;;;;;;21.37;10.40;;;-7.10;96.30;;;;;;5005253;28;20412;-77
2021/01/17 08:06:42;;;;;;;19.50;10.00;;;-7.10;96.30;;;;;;5001974;28;20432;-77
2021/01/17 08:09:12;;;;;;;14.53;8.93;;;-7.10;96.30;;;;;;5011841;28;20891;-78
2021/01/17 08:11:55;;;;;;;10.27;5.57;;;-7.00;96.30;;;;;;5012857;28;20200;-77
2021/01/17 08:14:40;;;;;;;31.30;17.63;;;-6.90;96.30;;;;;;5013054;28;20977;-77
2021/01/17 08:17:18;;;;;;;27.73;16.50;;;-6.80;96.30;;;;;;5012097;28;20452;-77
2021/01/17 08:19:46;;;;;;;38.00;20.17;;;-6.60;96.30;;;;;;5009604;28;20426;-79
2021/01/17 08:22:17;;;;;;;16.03;9.70;;;-6.50;96.30;;;;;;4957703;28;20539;-78
2021/01/17 08:24:49;;;;;;;9.13;6.37;;;-6.40;96.30;;;;;;5011616;28;20420;-79
2021/01/17 08:27:35;;;;;;;8.93;6.80;;;-6.30;96.30;;;;;;5012434;28;20435;-79
2021/01/17 08:30:06;;;;;;;11.67;6.97;;;-6.30;96.30;;;;;;5001507;28;20428;-78
2021/01/17 08:32:35;;;;;;;8.53;7.00;;;-6.30;96.30;;;;;;5001477;28;20491;-79
2021/01/17 08:35:23;;;;;;;10.27;7.10;;;-6.20;96.30;;;;;;5008507;28;20509;-79
2021/01/17 08:37:53;;;;;;;12.50;7.03;;;-6.10;96.30;;;;;;5010771;28;20423;-78
2021/01/17 08:40:42;;;;;;;11.53;6.30;;;-6.00;96.30;;;;;;5009996;28;20811;-78
2021/01/17 08:43:09;;;;;;;14.17;5.53;;;-5.90;96.30;;;;;;5006906;28;20408;-78
2021/01/17 08:45:41;;;;;;;10.00;6.07;;;-5.80;96.30;;;;;;5012712;28;20499;-78
2021/01/17 08:48:16;;;;;;;8.80;5.40;;;-5.70;96.30;;;;;;5013193;28;20446;-78
2021/01/17 08:50:49;;;;;;;9.13;6.00;;;-5.60;96.30;;;;;;5011808;28;20407;-78
2021/01/17 08:53:31;;;;;;;8.70;6.20;;;-5.60;96.30;;;;;;5013249;28;20768;-78
2021/01/17 08:56:09;;;;;;;8.60;6.53;;;-5.50;96.30;;;;;;5012442;28;20431;-78
2021/01/17 08:58:34;;;;;;;8.27;6.00;;;-5.60;96.30;;;;;;5008070;28;20460;-78
2021/01/17 09:01:00;;;;;;;11.30;6.27;;;-5.70;96.30;;;;;;4992982;28;20463;-78
2021/01/17 09:03:55;;;;;;;10.00;6.37;;;-5.80;96.30;;;;;;4993157;28;20253;-78
2021/01/17 09:06:30;;;;;;;7.87;5.77;;;-5.90;96.30;;;;;;4992344;28;20216;-81
2021/01/17 09:08:57;;;;;;;7.03;5.27;;;-5.80;96.30;;;;;;4993004;28;20447;-77
2021/01/17 09:11:42;;;;;;;10.00;7.00;;;-5.60;96.30;;;;;;5003199;28;20462;-77
2021/01/17 09:14:07;;;;;;;12.13;7.73;;;-5.50;96.30;;;;;;5007218;28;20413;-77
2021/01/17 09:16:37;;;;;;;13.33;8.10;;;-5.30;96.30;;;;;;5002468;28;20448;-77
2021/01/17 09:19:06;;;;;;;9.83;6.67;;;-5.20;96.30;;;;;;4993150;28;20651;-77
2021/01/17 09:21:33;;;;;;;10.83;7.33;;;-5.10;96.30;;;;;;4992882;28;20432;-77
2021/01/17 09:24:10;;;;;;;13.57;7.43;;;-5.00;96.30;;;;;;5008028;28;20457;-77
2021/01/17 09:26:38;;;;;;;10.37;6.70;;;-5.00;96.30;;;;;;4992231;28;20596;-77
2021/01/17 09:29:04;;;;;;;8.57;5.90;;;-4.90;96.30;;;;;;4991629;28;20409;-77
2021/01/17 09:31:31;;;;;;;9.37;6.30;;;-5.10;96.30;;;;;;4993316;28;20468;-77
2021/01/17 09:33:56;;;;;;;12.00;6.80;;;-5.20;96.30;;;;;;5001183;28;20203;-77
2021/01/17 09:36:24;;;;;;;11.40;6.90;;;-5.30;96.30;;;;;;4996191;28;20947;-77
2021/01/17 09:38:49;;;;;;;11.50;7.90;;;-5.20;96.30;;;;;;5003472;28;20216;-78
2021/01/17 09:41:23;;;;;;;10.10;5.97;;;-5.20;96.30;;;;;;5010977;28;20447;-77
2021/01/17 09:43:50;;;;;;;11.20;7.83;;;-5.30;96.30;;;;;;5001210;28;20203;-78
2021/01/17 09:46:22;;;;;;;12.70;8.23;;;-5.30;96.30;;;;;;4998151;28;20437;-78
2021/01/17 09:48:55;;;;;;;11.93;8.00;;;-5.50;96.30;;;;;;4992762;28;20409;-80
2021/01/17 09:51:22;;;;;;;17.83;8.23;;;-5.40;96.30;;;;;;4991442;28;20460;-78
2021/01/17 09:53:48;;;;;;;11.60;8.03;;;-5.20;96.30;;;;;;5003021;28;20507;-79
2021/01/17 09:56:14;;;;;;;10.40;7.67;;;-5.20;96.30;;;;;;5011339;28;20527;-79
2021/01/17 09:58:39;;;;;;;11.97;8.23;;;-5.20;96.30;;;;;;5011960;28;20177;-79
2021/01/17 10:01:05;;;;;;;11.20;7.47;;;-5.20;96.30;;;;;;5012140;28;20493;-77
2021/01/17 10:03:33;;;;;;;10.50;6.47;;;-5.20;96.30;;;;;;5012227;28;20180;-80
2021/01/17 10:05:58;;;;;;;11.63;5.57;;;-5.40;96.30;;;;;;5012662;28;20203;-79
2021/01/17 10:08:27;;;;;;;10.77;6.10;;;-5.20;96.30;;;;;;5019185;28;20867;-78
2021/01/17 10:10:53;;;;;;;8.73;6.10;;;-4.90;96.30;;;;;;5018097;28;20196;-79
2021/01/17 10:13:18;;;;;;;10.80;6.80;;;-4.70;96.30;;;;;;5012083;28;20495;-78
2021/01/17 10:15:47;;;;;;;10.03;6.03;;;-4.50;96.30;;;;;;4995587;28;20236;-78
2021/01/17 10:18:13;;;;;;;9.33;6.60;;;-4.60;96.30;;;;;;4995020;28;20814;-79
2021/01/17 10:20:39;;;;;;;9.67;5.00;;;-4.70;96.30;;;;;;4997469;28;20487;-79
2021/01/17 10:23:07;;;;;;;9.03;6.40;;;-4.60;96.30;;;;;;4996763;28;20673;-79
2021/01/17 10:25:34;;;;;;;8.73;6.07;;;-4.50;96.30;;;;;;4996837;28;20432;-79
2021/01/17 10:28:07;;;;;;;12.20;7.00;;;-4.30;96.30;;;;;;4996911;28;20417;-79
2021/01/17 10:30:38;;;;;;;11.67;6.63;;;-4.00;96.30;;;;;;4996582;28;20432;-79
2021/01/17 10:33:12;;;;;;;11.83;8.73;;;-3.50;96.30;;;;;;5005588;28;20471;-78
2021/01/17 10:35:46;;;;;;;13.27;8.70;;;-2.60;96.30;;;;;;5017523;28;20488;-78
2021/01/17 10:38:12;;;;;;;11.57;8.20;;;-1.10;95.10;;;;;;5015452;28;20458;-79
2021/01/17 10:40:40;;;;;;;9.67;7.63;;;0.10;90.10;;;;;;5015822;28;20473;-78
2021/01/17 10:43:08;;;;;;;10.33;7.80;;;1.00;87.10;;;;;;5017220;28;20506;-78
2021/01/17 10:45:35;;;;;;;8.50;5.43;;;1.60;83.00;;;;;;5015748;28;20534;-78
2021/01/17 10:48:07;;;;;;;8.93;5.40;;;2.30;80.50;;;;;;5017021;28;20416;-79
2021/01/17 10:50:47;;;;;;;7.00;5.13;;;2.70;78.00;;;;;;5015500;28;20419;-79
2021/01/17 10:53:19;;;;;;;7.77;4.80;;;2.70;77.80;;;;;;5015495;28;20455;-79
2021/01/17 10:55:49;;;;;;;5.40;4.10;;;2.20;78.50;;;;;;5013796;28;20444;-79
2021/01/17 10:58:22;;;;;;;6.07;4.70;;;1.90;79.00;;;;;;5021854;28;20396;-79
2021/01/17 11:00:59;;;;;;;6.50;4.50;;;1.90;80.70;;;;;;5022770;28;20811;-80
2021/01/17 11:03:33;;;;;;;5.60;3.97;;;1.60;80.40;;;;;;5018337;28;20422;-79
2021/01/17 11:06:21;;;;;;;4.50;4.10;;;2.10;80.50;;;;;;5004783;28;20467;-80
2021/01/17 11:08:47;;;;;;;6.30;4.30;;;2.00;79.30;;;;;;4995840;28;20405;-80
2021/01/17 11:11:14;;;;;;;6.20;4.60;;;1.70;79.90;;;;;;4999675;28;20456;-80
2021/01/17 11:13:41;;;;;;;5.80;3.63;;;1.80;80.50;;;;;;5007435;28;20428;-79
2021/01/17 11:16:07;;;;;;;7.20;3.83;;;1.80;79.80;;;;;;5001197;23;20520;-76
2021/01/17 11:18:33;;;;;;;4.93;3.70;;;1.50;80.60;;;;;;4979785;28;20454;-76
2021/01/17 11:20:59;;;;;;;3.90;3.30;;;1.50;80.80;;;;;;4979613;28;21003;-76
2021/01/17 11:23:27;;;;;;;5.20;3.80;;;1.60;79.70;;;;;;4975515;28;20535;-76
2021/01/17 11:26:02;;;;;;;5.40;4.17;;;1.70;80.90;;;;;;4973242;28;20511;-76
2021/01/17 11:28:28;;;;;;;4.17;3.27;;;1.90;79.40;;;;;;4994542;28;20519;-76
2021/01/17 11:31:14;;;;;;;5.60;4.40;;;2.40;79.80;;;;;;4994646;28;20504;-76
2021/01/17 11:33:40;;;;;;;5.00;4.00;;;2.90;78.40;;;;;;4994346;28;20916;-76
2021/01/17 11:36:06;;;;;;;4.40;4.00;;;3.10;77.40;;;;;;4994023;28;20437;-76
2021/01/17 11:39:04;;;;;;;5.27;3.90;;;3.10;76.50;;;;;;4969507;28;20179;-76
2021/01/17 11:41:37;;;;;;;3.10;2.53;;;3.20;75.80;;;;;;4931205;28;21088;-76
2021/01/17 11:44:17;;;;;;;6.80;4.40;;;3.20;75.30;;;;;;4974501;28;20517;-76
2021/01/17 11:46:43;;;;;;;4.40;3.00;;;3.60;74.70;;;;;;4973014;28;20507;-76
2021/01/17 11:49:10;;;;;;;3.77;2.80;;;3.90;72.70;;;;;;4957484;28;20421;-76
2021/01/17 11:51:36;;;;;;;3.50;2.67;;;3.80;72.30;;;;;;4990324;28;20547;-76
2021/01/17 11:54:10;;;;;;;2.57;2.27;;;3.70;71.70;;;;;;4972340;28;20425;-76
2021/01/17 11:56:35;;;;;;;5.47;3.30;;;4.00;71.70;;;;;;4975985;28;20452;-78
2021/01/17 11:59:01;;;;;;;3.83;3.20;;;4.00;72.00;;;;;;4951826;28;20442;-77
2021/01/17 12:01:27;;;;;;;3.40;3.00;;;4.10;71.40;;;;;;4956920;28;20266;-77
2021/01/17 12:04:01;;;;;;;9.27;7.57;;;4.40;71.00;;;;;;4974254;28;20686;-77
2021/01/17 12:06:27;;;;;;;5.10;4.20;;;4.20;70.90;;;;;;4955897;28;20204;-77
2021/01/17 12:09:07;;;;;;;6.50;5.37;;;3.90;72.40;;;;;;4956109;28;20789;-78
2021/01/17 12:11:46;;;;;;;6.80;5.23;;;3.90;72.10;;;;;;4971788;28;20549;-78
2021/01/17 12:14:25;;;;;;;5.40;3.50;;;3.90;72.10;;;;;;4955457;28;20884;-78
2021/01/17 12:16:58;;;;;;;4.50;3.80;;;3.90;71.20;;;;;;4949118;28;20503;-78
2021/01/17 12:19:26;;;;;;;3.20;2.80;;;3.60;70.70;;;;;;4972905;28;20811;-77
2021/01/17 12:21:56;;;;;;;3.37;2.93;;;3.20;72.30;;;;;;4974539;28;20931;-77
2021/01/17 12:24:22;;;;;;;4.07;3.20;;;3.50;70.60;;;;;;4963258;28;20417;-77
2021/01/17 12:26:48;;;;;;;3.77;3.20;;;4.00;70.70;;;;;;4985266;28;20476;-77
2021/01/17 12:29:15;;;;;;;4.87;3.10;;;4.40;70.00;;;;;;4956745;28;20178;-78
2021/01/17 12:31:41;;;;;;;3.80;3.30;;;4.40;70.00;;;;;;4974394;28;20441;-77
2021/01/17 12:34:08;;;;;;;5.40;3.63;;;4.30;70.00;;;;;;4974261;28;20406;-77
2021/01/17 12:36:34;;;;;;;4.33;3.13;;;4.20;69.20;;;;;;4956778;28;20925;-76
2021/01/17 12:39:02;;;;;;;4.10;3.10;;;4.20;70.00;;;;;;4973829;28;20402;-77
2021/01/17 12:41:32;;;;;;;4.10;3.70;;;4.30;70.00;;;;;;4974085;28;21107;-78
2021/01/17 12:43:59;;;;;;;4.63;3.33;;;4.30;70.00;;;;;;4973921;28;20585;-77
2021/01/17 12:46:25;;;;;;;4.13;3.40;;;4.20;69.60;;;;;;4956193;28;20441;-77
2021/01/17 12:48:52;;;;;;;4.50;3.40;;;4.20;69.90;;;;;;4973414;28;20516;-78
2021/01/17 12:51:18;;;;;;;4.50;3.60;;;3.80;69.20;;;;;;4955768;28;20446;-73
2021/01/17 12:53:46;;;;;;;5.50;3.70;;;3.20;70.80;;;;;;4973183;28;20786;-78
2021/01/17 12:56:12;;;;;;;7.10;5.30;;;3.00;73.00;;;;;;4973100;28;20956;-78
2021/01/17 12:58:38;;;;;;;7.77;6.70;;;2.80;73.80;;;;;;4973845;28;20413;-76
2021/01/17 13:01:05;;;;;;;6.60;5.07;;;2.80;74.70;;;;;;4973915;28;20413;-77
2021/01/17 13:03:31;;;;;;;6.00;4.07;;;2.80;73.90;;;;;;4973672;28;20418;-77
2021/01/17 13:05:57;;;;;;;6.40;4.00;;;2.80;73.90;;;;;;4972669;28;20552;-77
2021/01/17 13:08:23;;;;;;;10.20;5.50;;;2.10;74.80;;;;;;4956652;28;20492;-77
2021/01/17 13:10:49;;;;;;;4.83;3.80;;;1.60;76.00;;;;;;4956489;28;20174;-76
2021/01/17 13:13:16;;;;;;;4.20;3.80;;;1.10;76.60;;;;;;4970529;28;20205;-77
2021/01/17 13:15:47;;;;;;;3.70;3.33;;;0.60;75.50;;;;;;4986565;28;20822;-76
2021/01/17 13:18:13;;;;;;;4.60;4.10;;;-0.10;78.30;;;;;;4973313;28;20401;-77
2021/01/17 13:20:39;;;;;;;4.50;3.40;;;-0.50;80.20;;;;;;4973408;28;20506;-78
2021/01/17 13:23:05;;;;;;;4.80;3.60;;;-0.80;80.50;;;;;;4956078;28;20884;-77
2021/01/17 13:25:31;;;;;;;5.33;4.17;;;-0.70;81.60;;;;;;4971130;28;20204;-77
2021/01/17 13:27:57;;;;;;;5.30;4.73;;;-0.90;82.30;;;;;;4992731;28;20755;-77
2021/01/17 13:30:23;;;;;;;6.43;4.20;;;-1.40;84.10;;;;;;4980650;28;20464;-77
2021/01/17 13:32:48;;;;;;;5.90;4.07;;;-1.60;86.00;;;;;;4955789;28;20666;-76
2021/01/17 13:35:14;;;;;;;4.97;3.63;;;-1.60;85.70;;;;;;4972471;28;20185;-76
2021/01/17 13:37:40;;;;;;;6.10;4.10;;;-1.80;85.00;;;;;;4965316;28;20201;-77
2021/01/17 13:40:07;;;;;;;6.10;4.23;;;-1.80;86.50;;;;;;4992462;28;20650;-77
2021/01/17 13:42:33;;;;;;;5.00;4.30;;;-1.70;85.40;;;;;;4991236;28;20443;-77
2021/01/17 13:44:59;;;;;;;5.07;3.90;;;-1.70;84.50;;;;;;4956319;28;21000;-76
2021/01/17 13:47:26;;;;;;;6.70;4.33;;;-1.70;83.90;;;;;;4956502;28;20810;-77
2021/01/17 13:49:57;;;;;;;5.57;3.73;;;-1.80;84.20;;;;;;4972839;28;20577;-77
2021/01/17 13:52:23;;;;;;;4.20;3.53;;;-1.90;85.40;;;;;;4973490;28;20825;-76
2021/01/17 13:54:49;;;;;;;4.83;4.23;;;-1.60;86.80;;;;;;4973281;28;20472;-76
2021/01/17 13:57:15;;;;;;;4.30;3.57;;;-1.50;86.30;;;;;;4972444;28;20520;-79
2021/01/17 13:59:40;;;;;;;5.20;3.67;;;-1.50;87.30;;;;;;4971912;28;20170;-77
2021/01/17 14:02:09;;;;;;;7.00;3.97;;;-1.70;87.90;;;;;;4973193;28;20184;-76
2021/01/17 14:04:36;;;;;;;4.33;3.70;;;-2.20;89.10;;;;;;4971732;28;20186;-76
2021/01/17 14:07:02;;;;;;;4.80;3.47;;;-2.70;89.00;;;;;;4971305;28;20556;-76
2021/01/17 14:09:27;;;;;;;5.30;3.60;;;-3.10;91.30;;;;;;4955307;28;20421;-75
2021/01/17 14:11:53;;;;;;;5.23;3.63;;;-3.30;94.10;;;;;;4972964;28;20515;-77
2021/01/17 14:14:18;;;;;;;4.00;3.40;;;-3.60;94.40;;;;;;4972565;28;20181;-77
2021/01/17 14:16:45;;;;;;;6.47;3.97;;;-3.80;96.30;;;;;;4971818;28;20635;-77
2021/01/17 14:19:10;;;;;;;5.80;3.67;;;-3.90;96.30;;;;;;4955551;28;20638;-77
2021/01/17 14:21:43;;;;;;;5.40;3.40;;;-3.90;96.30;;;;;;4972925;28;20465;-77
2021/01/17 14:24:09;;;;;;;4.87;3.23;;;-4.10;96.30;;;;;;4977766;28;20212;-77
2021/01/17 14:26:35;;;;;;;12.67;5.70;;;-4.20;96.30;;;;;;4971879;28;20465;-77
2021/01/17 14:29:03;;;;;;;12.17;6.83;;;-4.30;96.30;;;;;;4955637;28;20425;-77
2021/01/17 14:31:36;;;;;;;95.47;26.77;;;-4.40;96.30;;;;;;4972457;28;20457;-77
2021/01/17 14:34:02;;;;;;;50.97;14.83;;;-4.50;96.30;;;;;;4973070;28;20909;-77
2021/01/17 14:36:46;;;;;;;134.53;32.90;;;-4.70;96.30;;;;;;4954923;28;20441;-78
2021/01/17 14:39:22;;;;;;;62.00;21.70;;;-4.90;96.30;;;;;;4955439;28;20178;-78
2021/01/17 14:41:58;;;;;;;37.70;15.83;;;-5.10;96.30;;;;;;4955575;28;20417;-78
2021/01/17 14:44:25;;;;;;;47.03;20.80;;;-5.10;96.30;;;;;;4972572;28;20810;-78
2021/01/17 14:46:52;;;;;;;24.37;16.30;;;-5.20;96.30;;;;;;4986961;28;20440;-78
2021/01/17 14:49:19;;;;;;;16.07;10.60;;;-5.20;96.30;;;;;;4973429;28;20414;-79
2021/01/17 14:51:45;;;;;;;10.90;7.20;;;-5.30;96.30;;;;;;4974517;28;20467;-80
2021/01/17 14:54:12;;;;;;;10.57;6.70;;;-5.30;96.30;;;;;;4974372;28;20413;-79
2021/01/17 14:56:48;;;;;;;10.37;6.57;;;-5.50;96.30;;;;;;4955869;28;20437;-79
2021/01/17 14:59:16;;;;;;;9.53;7.30;;;-5.60;96.30;;;;;;4956183;28;20425;-78
2021/01/17 15:01:42;;;;;;;10.17;6.97;;;-5.70;96.30;;;;;;4977179;28;20413;-78
2021/01/17 15:04:09;;;;;;;12.60;8.40;;;-5.90;96.30;;;;;;4961979;28;20414;-78
2021/01/17 15:06:35;;;;;;;12.53;8.03;;;-6.00;96.30;;;;;;4981957;28;20441;-79
2021/01/17 15:09:00;;;;;;;10.13;6.17;;;-6.20;96.30;;;;;;4960322;28;21256;-79
2021/01/17 15:11:26;;;;;;;6.60;5.00;;;-6.30;96.30;;;;;;4977884;28;20198;-79
2021/01/17 15:13:54;;;;;;;13.80;7.63;;;-6.50;96.30;;;;;;4980021;28;20173;-79
2021/01/17 15:16:21;;;;;;;7.80;5.80;;;-6.50;96.30;;;;;;4996172;28;20508;-79
2021/01/17 15:18:48;;;;;;;12.63;8.90;;;-6.60;96.30;;;;;;4997957;28;20462;-78
2021/01/17 15:21:16;;;;;;;16.90;9.73;;;-6.70;96.30;;;;;;4977305;28;20501;-78
2021/01/17 15:23:42;;;;;;;21.17;12.20;;;-6.80;96.30;;;;;;4955149;28;20427;-78
2021/01/17 15:26:08;;;;;;;12.17;8.03;;;-6.90;96.30;;;;;;4954630;28;20477;-79
2021/01/17 15:28:34;;;;;;;16.03;6.60;;;-7.00;96.30;;;;;;4973984;28;20441;-79
2021/01/17 15:31:00;;;;;;;11.70;8.30;;;-7.10;96.30;;;;;;4949528;29;20654;-79
2021/01/17 15:33:28;;;;;;;9.50;6.83;;;-7.20;96.30;;;;;;4950847;28;20821;-79
2021/01/17 15:35:53;;;;;;;8.70;6.17;;;-7.30;96.30;;;;;;4957431;28;20444;-79
2021/01/17 15:38:19;;;;;;;8.60;6.30;;;-7.40;96.30;;;;;;4951435;28;20418;-80
2021/01/17 15:40:44;;;;;;;12.57;9.73;;;-7.50;96.30;;;;;;4958371;28;20179;-79
2021/01/17 15:43:10;;;;;;;11.67;8.07;;;-7.50;96.30;;;;;;4968988;28;20646;-79
2021/01/17 15:45:35;;;;;;;9.27;6.87;;;-7.60;96.30;;;;;;4973248;28;20256;-78
2021/01/17 15:48:03;;;;;;;12.50;7.77;;;-7.70;96.30;;;;;;4976722;28;20613;-80
2021/01/17 15:50:29;;;;;;;10.30;6.70;;;-7.80;96.30;;;;;;4973064;28;20190;-79
2021/01/17 15:52:56;;;;;;;13.83;5.43;;;-7.80;96.30;;;;;;4969750;28;20500;-79
2021/01/17 15:55:21;;;;;;;10.40;6.33;;;-8.00;96.30;;;;;;4956349;28;20429;-78
2021/01/17 15:57:47;;;;;;;9.60;5.57;;;-8.10;96.30;;;;;;4968948;28;20926;-78
2021/01/17 16:00:13;;;;;;;13.47;8.30;;;-8.10;96.30;;;;;;4955705;28;20654;-78
2021/01/17 16:02:38;;;;;;;20.90;9.20;;;-8.10;96.30;;;;;;4945230;29;20183;-79
2021/01/17 16:05:04;;;;;;;11.60;8.13;;;-8.10;96.30;;;;;;4961021;28;20432;-79
2021/01/17 16:07:30;;;;;;;10.50;7.77;;;-8.20;96.30;;;;;;4951031;28;20222;-79
2021/01/17 16:09:55;;;;;;;10.97;8.33;;;-8.20;96.30;;;;;;4949541;28;20432;-79
2021/01/17 16:12:21;;;;;;;11.63;8.87;;;-8.30;96.30;;;;;;4970430;28;20187;-79
2021/01/17 16:14:46;;;;;;;12.70;9.00;;;-8.30;96.30;;;;;;4972928;28;20186;-79
2021/01/17 16:17:12;;;;;;;8.77;6.60;;;-8.40;96.30;;;;;;4968346;28;20205;-79
2021/01/17 16:19:38;;;;;;;7.50;5.50;;;-8.50;96.30;;;;;;4947467;29;20182;-79
2021/01/17 16:22:03;;;;;;;11.43;6.07;;;-8.50;96.30;;;;;;4947540;29;20203;-78
2021/01/17 16:24:29;;;;;;;7.10;5.00;;;-8.50;96.30;;;;;;4958789;28;20587;-79
2021/01/17 16:26:54;;;;;;;10.00;5.27;;;-8.70;96.30;;;;;;4957538;28;20673;-79
2021/01/17 16:29:20;;;;;;;6.70;4.70;;;-8.60;96.30;;;;;;4967556;28;20189;-78
2021/01/17 16:31:52;;;;;;;6.50;4.73;;;-8.60;96.30;;;;;;4979093;28;20573;-79
2021/01/17 16:34:18;;;;;;;9.73;5.33;;;-8.80;96.30;;;;;;4958557;28;20171;-79
2021/01/17 16:36:43;;;;;;;9.97;5.87;;;-8.70;96.30;;;;;;4958171;28;20480;-78
2021/01/17 16:39:09;;;;;;;7.47;5.23;;;-8.70;96.30;;;;;;4958474;28;20626;-79
2021/01/17 16:41:35;;;;;;;11.03;6.07;;;-8.70;96.30;;;;;;4950392;28;20190;-79
2021/01/17 16:44:00;;;;;;;9.00;5.27;;;-8.70;96.30;;;;;;4972609;28;20476;-79
2021/01/17 16:46:30;;;;;;;8.00;5.57;;;-8.70;96.30;;;;;;4958343;28;20202;-79
2021/01/17 16:48:56;;;;;;;11.37;6.33;;;-8.70;96.30;;;;;;4960280;28;20186;-79
2021/01/17 16:51:37;;;;;;;7.80;5.90;;;-8.60;96.30;;;;;;4969173;28;20528;-79
2021/01/17 16:54:05;;;;;;;9.27;6.00;;;-8.60;96.30;;;;;;4957328;28;20182;-79
2021/01/17 16:56:30;;;;;;;11.27;6.30;;;-8.90;96.30;;;;;;4974896;28;20453;-79
2021/01/17 16:58:57;;;;;;;10.33;6.50;;;-8.70;96.30;;;;;;4970511;28;20414;-79